Drake Field
KFYV : now visible

Airfield :











YOU CAN JOIN US ON...

 
LOGIN :

Register | Disclaimer

   EN    FR    IT 

 









Legend :    VFR   Marginal VFR   IFR   Intensive IFR   Very Intensive IFR
Visi :
Ceiling :
>= 8 km
>= 3000ft
5 to 8 km
1000 to 3000 ft
1500m to 5 km
500 to 1000 ft
800 to 1500m
200 to 500 ft
< 800m
< 200 ft
Symbols :   Thunderstorms  Fog  Heavy snow  Heavy precipitations  Wind > 20 kt






- Airport Elevation : 1251 ft
- IATA code : FYV


KFYV - Drake Field

CURRENT METAR :
  • 281353Z 03003KT 7SM BKN100 OVC110 04/03 A3000 RMK AO2 SLP162 T00440028

EXPIRED METARs :
  • 281253Z VRB05KT 9SM OVC100 04/03 A2998 RMK AO2 SLP156 T00440028
  • 281153Z VRB03KT 10SM FEW100 04/03 A2998 RMK AO2 SLP154 T00440028 10056 20017 58002

TAF KFYV
Valid from the 28 at 12:00 until the 29 at 12:00 UTC


281120Z 2812/2912 04003KT P6SM OVC100
FM281500 05005KT P6SM VCSH SCT015 BKN060
FM281800 10007KT 4SM -RA BR OVC012
FM282100 06007KT 2SM -RA BR OVC007



MET'MAP, your aeronautical weather chart ! - Copyright ORBIFLY December 2007 - Disclaimer

ORBIFLY MET'MAP TEAM :

Programming & Development : Alexandra Zaïnal
Concept & original design : Baudouin d'Aumeries
Assistance for programming : Marc-Olivier Méhu
Technical & hardware support : Manuel Goepfert

Contact : metmap@orbifly.com




SOURCES & CREDITS :

   NOAA       Earth
Advisory